Alcester, SD (57001)

10:29 AM CDT on July 30, 2014 (GMT -0500)
Sioux Center (KIASIOUX16) Elev 1411 ft | 43.06 °N, 96.17 °W | Change Station

Current weather conditions updated 1 minute ago

Clear
Clear
72.1 °F
Feels Like 76 °F
N
3.0
Wind Variable Wind from West
Gusts 5.0 mph

Today is forecast to be Cooler than yesterday.

Today
High -- | Low -- °F
--% Chance of Precip.
Yesterday
High -- | Low -- °F
Precip. -- in
6:15 AM 8:49 PM
Waxing Crescent, 12% visible
Pressure 30.17 in
Visibility 10.0 miles
Clouds Clear
Heat Index 76 °F
Dew Point 58 °F
Humidity 62%
Rainfall 0.00 in
Snow Depth Not available.
UV 6 out of 12
Pollen 6.10 out of 12
Air Quality Not available.
Flu Activity Not available.
METAR KLRJ 301515Z AUTO 00000KT 10SM CLR 21/16 A3017 RMK AO2

More Conditions Fewer Conditions

Pressure 30.17 in
Visibility 10.0 miles
Clouds Clear
Heat Index 76 °F
Dew Point 58 °F
Humidity 62%
Rainfall 0.00 in
Snow Depth Not available.
UV 6 out of 12
Pollen 6.10 out of 12
Air Quality Not available.
Flu Activity Not available.
METAR KLRJ 301515Z AUTO 00000KT 10SM CLR 21/16 A3017 RMK AO2

More Conditions Fewer Conditions

10-Day Weather Forecast

Almanac

Astronomy

Jul. 30, 2014 Rise Set
Actual Time 6:15 AM CDT 8:49 PM CDT
Civil Twilight 5:42 AM CDT 9:22 PM CDT
Nautical Twilight 5:02 AM CDT 10:02 PM CDT
Astronomical Twilight 4:15 AM CDT 10:48 PM CDT
Moon 9:54 AM CDT 10:25 PM CDT
Length of Visible Light 15h 39m
Length of Day
14h 34m
Tomorrow will be 2m 10s shorter.
Waxing Crescent, 12% of the Moon is Illuminated
Today
Waxing Crescent
Aug 3
First Quarter
Aug 10
Full
Aug 17
Last Quarter
Aug 25
New

Today's Extremes

State Highs State Lows

Community

WunderPhotos

Upload Photos

1,739,107 photos uploaded!

WunderBlogs® & News

By Dr. Jeff Masters
Director of Meteorology, Weather Underground
By Kari Strenfel
Meteorologist, Weather Underground
By Christopher C. Burt
Weather Historian, Weather Underground
July 30, 2014
July 30, 2014
July 30, 2014

Nearby

Snow Depth

Station Depth Elevation
Blind Park 0 in 6890 ft

Earthquake Activity

City Distance Mag. Time & Date
No recent earthquake activity has been reported nearby.
Minimum magnitude displayed is 2.5.

Coastal Water Temperatures

Place Temperature
No Stations Reporting

Nearby Weather Stations

Station Location Temp. Heat Index Dew Point Humidity Wind Precip. Elev Updated Type
Sioux Center, Sioux Center, IA 72.1 °F 76 °F 58 °F 62% West  at  3.0 mph 0.00 in / hr 1411 ft 10:28 AM CDT Normal
Sioux Center IA, Sioux Center, IA 70.9 °F 75 °F 59 °F 66% NNW  at  3.0 mph 0.00 in / hr 1470 ft 10:25 AM CDT Normal

Show More Stations Show Fewer Stations